createdAt,value
2018-06-16T00:00:12.879Z,92.09
2018-06-16T00:01:12.807Z,91.99
2018-06-16T00:03:05.576Z,93.34
2018-06-16T00:04:05.525Z,93.24
2018-06-16T00:05:58.321Z,93.15
2018-06-16T00:06:58.269Z,92.47
2018-06-16T00:08:51.029Z,92.76
2018-06-16T00:09:50.961Z,93.05
2018-06-16T00:11:43.785Z,91.90
2018-06-16T00:12:43.765Z,92.19
2018-06-16T00:14:36.555Z,92.86
2018-06-16T00:15:36.481Z,93.63
2018-06-16T00:17:29.291Z,92.76
2018-06-16T00:18:29.225Z,93.82
2018-06-16T00:20:22.029Z,92.76
2018-06-16T00:21:21.947Z,94.11
2018-06-16T00:23:14.738Z,94.49
2018-06-16T00:24:14.673Z,93.24
2018-06-16T00:26:07.491Z,94.11
2018-06-16T00:27:07.419Z,92.86
2018-06-16T00:29:00.202Z,93.63
2018-06-16T00:30:00.133Z,94.30
2018-06-16T00:31:52.921Z,93.05
2018-06-16T00:32:52.863Z,92.86
2018-06-16T00:34:45.656Z,92.86
2018-06-16T00:35:45.573Z,94.35
2018-06-16T00:37:38.377Z,94.26
2018-06-16T00:38:38.317Z,94.49
2018-06-16T00:40:31.115Z,94.64
2018-06-16T00:41:31.042Z,95.03
2018-06-16T00:43:23.837Z,95.03
2018-06-16T00:44:23.768Z,95.60
2018-06-16T00:46:16.580Z,95.03
2018-06-16T00:47:16.514Z,95.12
2018-06-16T00:49:09.306Z,96.37
2018-06-16T00:50:09.238Z,95.03
2018-06-16T00:52:02.016Z,95.60
2018-06-16T00:53:02.010Z,96.47
2018-06-16T00:54:54.741Z,96.56
2018-06-16T00:55:54.665Z,95.70
2018-06-16T00:57:47.455Z,96.56
2018-06-16T00:58:47.378Z,96.56
2018-06-16T01:00:40.172Z,95.70
2018-06-16T01:01:40.112Z,96.17
2018-06-16T01:03:32.872Z,95.79
2018-06-16T01:04:32.810Z,95.89
2018-06-16T01:06:25.603Z,96.85
2018-06-16T01:07:25.536Z,96.17
2018-06-16T01:09:18.346Z,96.56
2018-06-16T01:10:18.275Z,97.42
2018-06-16T01:12:11.053Z,97.52
2018-06-16T01:13:10.983Z,97.42
2018-06-16T01:15:03.974Z,96.56
2018-06-16T01:16:03.854Z,96.37
2018-06-16T01:17:56.688Z,96.47
2018-06-16T01:18:56.620Z,96.51
2018-06-16T01:20:49.442Z,97.33
2018-06-16T01:21:49.370Z,97.28
2018-06-16T01:23:42.163Z,97.28
2018-06-16T01:24:42.097Z,97.47
2018-06-16T01:26:34.887Z,97.47
2018-06-16T01:27:34.812Z,97.76
2018-06-16T01:29:27.588Z,98.05
2018-06-16T01:30:27.537Z,97.28
2018-06-16T01:32:20.344Z,97.76
2018-06-16T01:33:20.239Z,97.57
2018-06-16T01:35:13.016Z,97.57
2018-06-16T01:36:12.947Z,97.86
2018-06-16T01:38:05.748Z,98.53
2018-06-16T01:39:05.665Z,98.53
2018-06-16T01:40:58.481Z,98.24
2018-06-16T01:41:58.407Z,98.72
2018-06-16T01:43:51.217Z,98.24
2018-06-16T01:44:51.151Z,98.53
2018-06-16T01:46:43.997Z,98.34
2018-06-16T01:47:43.894Z,98.63
2018-06-16T01:49:36.695Z,98.24
2018-06-16T01:50:36.621Z,98.72
2018-06-16T01:52:29.404Z,99.10
2018-06-16T01:53:29.337Z,98.48
2018-06-16T01:55:22.127Z,99.20
2018-06-16T01:56:22.061Z,99.82
2018-06-16T01:58:14.877Z,98.86
2018-06-16T01:59:14.810Z,99.92
2018-06-16T02:01:07.631Z,99.25
2018-06-16T02:02:07.542Z,99.54
2018-06-16T02:04:00.464Z,99.82
2018-06-16T02:05:00.330Z,99.92
2018-06-16T02:06:53.134Z,99.92
2018-06-16T02:07:53.054Z,99.25
2018-06-16T02:09:45.803Z,99.44
2018-06-16T02:10:45.731Z,99.92
2018-06-16T02:12:38.558Z,99.99
2018-06-16T02:13:38.489Z,99.92
2018-06-16T02:15:31.282Z,99.99
2018-06-16T02:16:31.276Z,99.99
2018-06-16T02:18:24.065Z,99.92
2018-06-16T02:19:23.987Z,99.68
2018-06-16T02:21:16.981Z,99.87
2018-06-16T02:22:16.889Z,99.97
2018-06-16T02:24:09.669Z,99.99
2018-06-16T02:25:09.602Z,99.97
2018-06-16T02:27:02.444Z,99.73
2018-06-16T02:28:02.386Z,99.99
2018-06-16T02:29:55.156Z,99.99
2018-06-16T02:30:55.087Z,99.99
2018-06-16T02:32:47.906Z,99.99
2018-06-16T02:33:47.855Z,99.99
2018-06-16T02:35:40.605Z,99.73
2018-06-16T02:36:40.544Z,99.99
2018-06-16T02:38:33.350Z,99.63
2018-06-16T02:39:33.267Z,99.99
2018-06-16T02:41:26.056Z,99.99
2018-06-16T02:42:26.041Z,99.99
2018-06-16T02:44:18.788Z,99.99
2018-06-16T02:45:18.715Z,99.99
2018-06-16T02:47:11.549Z,99.92
2018-06-16T02:48:11.444Z,99.99
2018-06-16T02:50:04.240Z,99.63
2018-06-16T02:51:04.168Z,99.99
2018-06-16T02:52:57.887Z,99.99
2018-06-16T02:53:57.850Z,99.99
2018-06-16T02:55:50.779Z,99.99
2018-06-16T02:56:50.491Z,99.99
2018-06-16T02:58:43.290Z,99.99
2018-06-16T02:59:43.225Z,99.99
2018-06-16T03:01:36.022Z,99.99
2018-06-16T03:02:35.938Z,99.99
2018-06-16T03:04:28.786Z,99.99
2018-06-16T03:05:28.723Z,99.99
2018-06-16T03:07:21.527Z,99.99
2018-06-16T03:08:21.413Z,99.99
2018-06-16T03:10:14.227Z,99.99
2018-06-16T03:11:14.180Z,99.99
2018-06-16T03:13:07.099Z,99.99
2018-06-16T03:14:06.995Z,99.99
2018-06-16T03:15:59.772Z,99.99
2018-06-16T03:16:59.690Z,99.99
2018-06-16T03:18:52.539Z,99.99
2018-06-16T03:19:52.471Z,99.99
2018-06-16T03:21:45.331Z,99.99
2018-06-16T03:22:45.254Z,99.99
2018-06-16T03:24:38.060Z,99.99
2018-06-16T03:25:37.991Z,99.99
2018-06-16T03:27:30.776Z,99.99
2018-06-16T03:28:30.732Z,99.99
2018-06-16T03:30:23.506Z,99.99
2018-06-16T03:31:23.419Z,99.99
2018-06-16T03:33:16.234Z,99.99
2018-06-16T03:34:16.165Z,99.99
2018-06-16T03:36:08.991Z,99.99
2018-06-16T03:37:08.993Z,99.99
2018-06-16T03:39:01.740Z,99.99
2018-06-16T03:40:01.643Z,99.99
2018-06-16T03:41:54.443Z,99.99
2018-06-16T03:42:54.378Z,99.99
2018-06-16T03:44:47.221Z,99.99
2018-06-16T03:45:47.119Z,99.99
2018-06-16T03:47:39.956Z,99.99
2018-06-16T03:48:39.904Z,99.99
2018-06-16T03:50:32.639Z,99.99
2018-06-16T03:51:32.614Z,99.99
2018-06-16T03:53:25.406Z,99.83
2018-06-16T03:54:25.319Z,99.99
2018-06-16T03:56:18.112Z,99.99
2018-06-16T03:57:18.100Z,99.99
2018-06-16T03:59:10.846Z,99.99
2018-06-16T04:00:10.768Z,99.99
2018-06-16T04:02:03.628Z,99.99
2018-06-16T04:03:03.572Z,99.99
2018-06-16T04:04:56.590Z,99.99
2018-06-16T04:05:56.287Z,99.99
2018-06-16T04:07:49.065Z,99.99
2018-06-16T04:08:49.007Z,99.54
2018-06-16T04:10:41.838Z,99.99
2018-06-16T04:11:41.752Z,99.99
2018-06-16T04:13:34.575Z,99.99
2018-06-16T04:14:34.567Z,99.99
2018-06-16T04:16:27.296Z,99.99
2018-06-16T04:17:27.190Z,99.99
2018-06-16T04:19:19.986Z,99.99
2018-06-16T04:20:19.911Z,99.99
2018-06-16T04:22:12.718Z,99.99
2018-06-16T04:23:12.656Z,99.99
2018-06-16T04:25:05.506Z,99.99
2018-06-16T04:26:05.423Z,99.99
2018-06-16T04:27:58.227Z,99.99
2018-06-16T04:28:58.160Z,99.99
2018-06-16T04:30:50.947Z,99.99
2018-06-16T04:31:50.932Z,99.99
2018-06-16T04:33:43.682Z,99.11
2018-06-16T04:34:43.637Z,99.99
2018-06-16T04:36:36.454Z,99.99
2018-06-16T04:37:36.377Z,99.99
2018-06-16T04:39:29.149Z,99.88
2018-06-16T04:40:29.083Z,99.99
2018-06-16T04:42:21.866Z,99.99
2018-06-16T04:43:21.799Z,99.35
2018-06-16T04:45:14.691Z,99.99
2018-06-16T04:46:14.553Z,98.29
2018-06-16T04:48:07.399Z,99.99
2018-06-16T04:49:07.333Z,99.83
2018-06-16T04:51:00.146Z,99.99
2018-06-16T04:52:00.123Z,99.06
2018-06-16T04:53:52.947Z,97.91
2018-06-16T04:54:52.872Z,98.96
2018-06-16T04:56:45.706Z,99.69
2018-06-16T04:57:45.622Z,99.99
2018-06-16T04:59:38.452Z,98.05
2018-06-16T05:00:38.365Z,99.78
2018-06-16T05:02:31.181Z,99.99
2018-06-16T05:03:31.117Z,99.98
2018-06-16T05:05:23.959Z,99.01
2018-06-16T05:06:23.885Z,98.34
2018-06-16T05:08:16.664Z,98.77
2018-06-16T05:09:16.594Z,97.19
2018-06-16T05:11:09.399Z,96.51
2018-06-16T05:12:09.309Z,98.05
2018-06-16T05:14:02.129Z,98.44
2018-06-16T05:15:02.027Z,97.72
2018-06-16T05:16:54.886Z,99.06
2018-06-16T05:17:54.740Z,98.77
2018-06-16T05:19:47.539Z,96.08
2018-06-16T05:20:47.465Z,97.42
2018-06-16T05:22:40.269Z,98.39
2018-06-16T05:23:40.188Z,97.72
2018-06-16T05:25:33.007Z,96.99
2018-06-16T05:26:32.931Z,97.04
2018-06-16T05:28:25.733Z,96.51
2018-06-16T05:29:25.678Z,96.56
2018-06-16T05:31:18.466Z,97.04
2018-06-16T05:32:18.390Z,98.39
2018-06-16T05:34:11.189Z,97.62
2018-06-16T05:35:11.123Z,97.33
2018-06-16T05:37:03.942Z,95.79
2018-06-16T05:38:03.869Z,94.78
2018-06-16T05:39:56.639Z,96.32
2018-06-16T05:40:56.577Z,95.40
2018-06-16T05:42:49.461Z,94.78
2018-06-16T05:43:49.325Z,96.22
2018-06-16T05:45:42.110Z,95.74
2018-06-16T05:46:42.043Z,95.74
2018-06-16T05:48:34.819Z,95.69
2018-06-16T05:49:34.757Z,95.98
2018-06-16T05:51:27.552Z,93.76
2018-06-16T05:52:27.481Z,93.19
2018-06-16T05:54:20.252Z,93.28
2018-06-16T05:55:20.190Z,92.80
2018-06-16T05:57:12.988Z,92.56
2018-06-16T05:58:12.912Z,93.43
2018-06-16T06:00:05.732Z,92.56
2018-06-16T06:01:05.634Z,92.56
2018-06-16T06:02:58.421Z,92.46
2018-06-16T06:03:58.356Z,91.60
2018-06-16T06:05:51.125Z,91.60
2018-06-16T06:06:51.059Z,91.20
2018-06-16T06:08:43.859Z,92.51
2018-06-16T06:09:43.803Z,92.51
2018-06-16T06:11:36.584Z,91.83
2018-06-16T06:12:36.516Z,92.22
2018-06-16T06:14:29.301Z,92.46
2018-06-16T06:15:29.233Z,92.03
2018-06-16T06:17:22.727Z,92.36
2018-06-16T06:18:22.652Z,92.94
2018-06-16T06:20:15.420Z,91.98
2018-06-16T06:21:15.366Z,92.94
2018-06-16T06:23:08.191Z,91.88
2018-06-16T06:24:08.106Z,92.32
2018-06-16T06:26:00.885Z,91.98
2018-06-16T06:27:00.818Z,92.22
2018-06-16T06:28:53.599Z,92.22
2018-06-16T06:29:53.530Z,91.06
2018-06-16T06:31:46.352Z,92.60
2018-06-16T06:32:46.292Z,91.78
2018-06-16T06:34:39.103Z,90.62
2018-06-16T06:35:39.018Z,90.14
2018-06-16T06:37:31.821Z,89.95
2018-06-16T06:38:31.730Z,90.95
2018-06-16T06:40:24.663Z,89.12
2018-06-16T06:41:24.476Z,88.25
2018-06-16T06:43:17.289Z,90.37
2018-06-16T06:44:17.214Z,89.03
2018-06-16T06:46:10.003Z,91.09
2018-06-16T06:47:09.947Z,91.58
2018-06-16T06:49:02.728Z,88.97
2018-06-16T06:50:02.660Z,88.29
2018-06-16T06:51:55.456Z,85.25
2018-06-16T06:52:55.377Z,87.18
2018-06-16T06:54:48.171Z,85.98
2018-06-16T06:55:48.116Z,87.08
2018-06-16T06:57:40.921Z,87.37
2018-06-16T06:58:40.818Z,87.66
2018-06-16T07:00:33.615Z,84.72
2018-06-16T07:01:33.568Z,84.33
2018-06-16T07:03:26.373Z,85.21
2018-06-16T07:04:26.299Z,84.91
2018-06-16T07:06:19.080Z,84.43
2018-06-16T07:07:19.031Z,84.33
2018-06-16T07:09:11.802Z,84.09
2018-06-16T07:10:11.726Z,84.28
2018-06-16T07:12:04.529Z,82.68
2018-06-16T07:13:04.465Z,82.10
2018-06-16T07:14:57.286Z,82.20
2018-06-16T07:15:57.222Z,82.91
2018-06-16T07:17:50.011Z,81.02
2018-06-16T07:18:49.937Z,82.80
2018-06-16T07:20:42.731Z,79.90
2018-06-16T07:21:42.668Z,77.76
2018-06-16T07:23:35.469Z,75.71
2018-06-16T07:24:35.391Z,79.39
2018-06-16T07:26:28.203Z,73.61
2018-06-16T07:27:28.147Z,72.55
2018-06-16T07:29:20.992Z,67.38
2018-06-16T07:30:20.888Z,67.63
2018-06-16T07:32:13.686Z,74.15
2018-06-16T07:33:13.617Z,68.80
2018-06-16T07:35:06.467Z,66.79
2018-06-16T07:36:06.350Z,68.84
2018-06-16T07:37:59.178Z,68.19
2018-06-16T07:38:59.216Z,65.85
2018-06-16T07:40:51.893Z,61.60
2018-06-16T07:41:51.861Z,62.50
2018-06-16T07:43:44.681Z,60.33
2018-06-16T07:44:44.592Z,65.01
2018-06-16T07:46:37.444Z,63.97
2018-06-16T07:47:37.335Z,61.57
2018-06-16T07:49:30.146Z,66.99
2018-06-16T07:50:30.086Z,65.01
2018-06-16T07:52:22.845Z,65.63
2018-06-16T07:53:22.792Z,66.40
2018-06-16T07:55:15.619Z,64.65
2018-06-16T07:56:15.538Z,64.85
2018-06-16T07:58:08.364Z,64.56
2018-06-16T07:59:08.282Z,64.07
2018-06-16T08:01:01.079Z,69.06
2018-06-16T08:02:01.015Z,67.11
2018-06-16T08:03:53.803Z,64.23
2018-06-16T08:04:53.732Z,62.74
2018-06-16T08:06:46.526Z,64.59
2018-06-16T08:07:46.465Z,64.46
2018-06-16T08:09:39.306Z,65.04
2018-06-16T08:10:39.231Z,64.81
2018-06-16T08:12:32.041Z,64.72
2018-06-16T08:13:32.015Z,66.37
2018-06-16T08:15:24.794Z,64.85
2018-06-16T08:16:24.716Z,60.70
2018-06-16T08:18:17.525Z,60.05
2018-06-16T08:19:17.467Z,65.56
2018-06-16T08:21:10.295Z,68.41
2018-06-16T08:23:23.037Z,61.93
2018-06-16T08:24:22.984Z,61.54
2018-06-16T08:26:15.791Z,62.34
2018-06-16T08:27:15.729Z,59.54
2018-06-16T08:29:08.545Z,56.12
2018-06-16T08:30:08.480Z,55.63
2018-06-16T08:32:01.263Z,56.12
2018-06-16T08:33:01.197Z,56.46
2018-06-16T08:34:54.012Z,56.52
2018-06-16T08:35:53.934Z,59.84
2018-06-16T08:37:46.772Z,57.86
2018-06-16T08:38:46.694Z,59.66
2018-06-16T08:40:39.517Z,65.79
2018-06-16T08:41:39.457Z,64.62
2018-06-16T08:43:32.238Z,61.87
2018-06-16T08:44:32.183Z,62.06
2018-06-16T08:46:25.071Z,62.41
2018-06-16T08:47:24.995Z,61.08
2018-06-16T08:49:17.842Z,64.29
2018-06-16T08:50:17.756Z,60.72
2018-06-16T08:52:10.541Z,63.68
2018-06-16T08:53:10.487Z,64.87
2018-06-16T08:55:03.299Z,59.55
2018-06-16T08:56:03.228Z,58.87
2018-06-16T08:57:56.069Z,56.87
2018-06-16T08:58:55.999Z,56.58
2018-06-16T09:00:48.765Z,57.78
2018-06-16T09:01:48.725Z,55.18
2018-06-16T09:03:41.489Z,54.69
2018-06-16T09:04:41.432Z,56.22
2018-06-16T09:06:34.278Z,53.71
2018-06-16T09:07:34.212Z,53.78
2018-06-16T09:09:27.023Z,60.32
2018-06-16T09:10:26.959Z,57.00
2018-06-16T09:12:19.757Z,52.39
2018-06-16T09:13:19.683Z,55.02
2018-06-16T09:15:12.487Z,55.26
2018-06-16T09:16:12.420Z,55.82
2018-06-16T09:18:05.193Z,59.67
2018-06-16T09:19:05.139Z,56.04
2018-06-16T09:20:58.000Z,55.97
2018-06-16T09:21:57.900Z,61.43
2018-06-16T09:23:50.684Z,54.63
2018-06-16T09:24:50.625Z,56.41
2018-06-16T09:26:43.439Z,54.93
2018-06-16T09:27:43.378Z,54.09
2018-06-16T09:29:36.195Z,56.21
2018-06-16T09:30:36.113Z,53.85
2018-06-16T09:32:28.908Z,60.88
2018-06-16T09:33:28.839Z,65.50
2018-06-16T09:35:21.662Z,54.21
2018-06-16T09:36:21.576Z,54.11
2018-06-16T09:38:14.343Z,55.07
2018-06-16T09:39:14.302Z,56.72
2018-06-16T09:41:07.136Z,55.33
2018-06-16T09:42:07.117Z,56.01
2018-06-16T09:43:59.880Z,57.06
2018-06-16T09:44:59.819Z,57.86
2018-06-16T09:46:52.629Z,57.50
2018-06-16T09:47:52.566Z,57.09
2018-06-16T09:49:45.378Z,55.76
2018-06-16T09:50:45.307Z,62.38
2018-06-16T09:52:38.129Z,65.88
2018-06-16T09:53:38.068Z,59.00
2018-06-16T09:55:30.868Z,62.29
2018-06-16T09:56:30.809Z,59.56
2018-06-16T09:58:23.631Z,58.39
2018-06-16T09:59:23.552Z,60.34
2018-06-16T10:01:16.391Z,60.21
2018-06-16T10:02:16.311Z,59.89
2018-06-16T10:04:09.106Z,60.70
2018-06-16T10:05:09.047Z,58.10
2018-06-16T10:07:01.928Z,59.52
2018-06-16T10:08:01.849Z,56.82
2018-06-16T10:09:54.694Z,56.56
2018-06-16T10:10:54.638Z,63.02
2018-06-16T10:12:47.438Z,56.01
2018-06-16T10:13:47.364Z,55.36
2018-06-16T10:15:40.178Z,58.48
2018-06-16T10:16:40.150Z,57.04
2018-06-16T10:18:32.945Z,52.46
2018-06-16T10:19:32.895Z,57.24
2018-06-16T10:21:25.675Z,59.41
2018-06-16T10:22:25.605Z,61.23
2018-06-16T10:24:18.437Z,55.86
2018-06-16T10:25:18.366Z,54.98
2018-06-16T10:27:11.184Z,53.78
2018-06-16T10:28:11.106Z,54.95
2018-06-16T10:30:03.933Z,58.22
2018-06-16T10:31:03.925Z,56.23
2018-06-16T10:32:56.717Z,53.97
2018-06-16T10:33:56.626Z,54.82
2018-06-16T10:35:49.423Z,53.55
2018-06-16T10:36:49.362Z,58.13
2018-06-16T10:38:42.205Z,54.50
2018-06-16T10:39:42.100Z,54.96
2018-06-16T10:41:34.931Z,54.47
2018-06-16T10:42:34.846Z,59.66
2018-06-16T10:44:27.631Z,56.37
2018-06-16T10:45:27.581Z,54.21
2018-06-16T10:47:20.367Z,55.50
2018-06-16T10:48:20.298Z,52.38
2018-06-16T10:50:13.121Z,54.94
2018-06-16T10:51:13.077Z,51.80
2018-06-16T10:53:05.897Z,53.23
2018-06-16T10:54:05.798Z,53.81
2018-06-16T10:55:58.585Z,54.86
2018-06-16T10:56:58.521Z,57.03
2018-06-16T10:58:51.376Z,56.25
2018-06-16T10:59:51.263Z,54.79
2018-06-16T11:01:44.073Z,51.53
2018-06-16T11:02:44.023Z,60.70
2018-06-16T11:04:36.814Z,56.81
2018-06-16T11:05:36.749Z,58.56
2018-06-16T11:07:29.586Z,54.35
2018-06-16T11:08:29.514Z,53.96
2018-06-16T11:10:22.379Z,52.43
2018-06-16T11:11:22.301Z,59.46
2018-06-16T11:13:15.120Z,55.52
2018-06-16T11:14:15.056Z,51.92
2018-06-16T11:16:07.908Z,52.58
2018-06-16T11:17:07.831Z,55.01
2018-06-16T11:19:00.655Z,53.81
2018-06-16T11:20:00.570Z,52.23
2018-06-16T11:21:53.395Z,54.64
2018-06-16T11:22:53.337Z,57.46
2018-06-16T11:24:46.155Z,55.44
2018-06-16T11:25:46.092Z,55.18
2018-06-16T11:27:38.923Z,53.99
2018-06-16T11:28:38.807Z,55.54
2018-06-16T11:30:31.637Z,58.39
2018-06-16T11:31:31.554Z,52.36
2018-06-16T11:33:24.332Z,49.95
2018-06-16T11:34:24.302Z,52.09
2018-06-16T11:36:17.096Z,49.41
2018-06-16T11:37:17.027Z,49.12
2018-06-16T11:39:09.866Z,49.07
2018-06-16T11:40:09.792Z,51.53
2018-06-16T11:42:02.604Z,52.40
2018-06-16T11:43:02.544Z,53.28
2018-06-16T11:44:55.391Z,51.33
2018-06-16T11:45:55.280Z,47.74
2018-06-16T11:47:48.091Z,53.99
2018-06-16T11:48:48.088Z,55.15
2018-06-16T11:50:40.791Z,50.78
2018-06-16T11:51:40.747Z,48.73
2018-06-16T11:53:33.532Z,51.84
2018-06-16T11:54:33.470Z,53.79
2018-06-16T11:56:26.283Z,53.91
2018-06-16T11:57:26.221Z,52.06
2018-06-16T11:59:19.066Z,52.09
2018-06-16T12:00:19.019Z,49.27
2018-06-16T12:02:11.780Z,53.16
2018-06-16T12:03:11.719Z,51.31
2018-06-16T12:05:04.665Z,49.10
2018-06-16T12:06:04.495Z,46.17
2018-06-16T12:07:57.344Z,52.40
2018-06-16T12:08:57.243Z,50.16
2018-06-16T12:10:50.051Z,45.68
2018-06-16T12:11:50.027Z,45.28
2018-06-16T12:13:42.768Z,45.47
2018-06-16T12:14:42.702Z,45.18
2018-06-16T12:16:35.485Z,44.40
2018-06-16T12:17:35.431Z,45.28
2018-06-16T12:19:28.226Z,45.28
2018-06-16T12:20:28.166Z,48.68
2018-06-16T12:22:21.009Z,44.86
2018-06-16T12:23:20.941Z,45.45
2018-06-16T12:25:13.781Z,49.15
2018-06-16T12:26:13.688Z,50.02
2018-06-16T12:28:06.475Z,48.07
2018-06-16T12:29:06.427Z,47.86
2018-06-16T12:30:59.223Z,48.34
2018-06-16T12:31:59.147Z,47.08
2018-06-16T12:33:52.007Z,48.83
2018-06-16T12:34:51.921Z,50.31
2018-06-16T12:36:44.714Z,49.54
2018-06-16T12:37:44.769Z,55.76
2018-06-16T12:39:37.693Z,47.88
2018-06-16T12:40:37.403Z,47.98
2018-06-16T12:42:30.359Z,49.05
2018-06-16T12:43:30.132Z,48.75
2018-06-16T12:45:23.049Z,46.03
2018-06-16T12:46:22.947Z,46.50
2018-06-16T12:48:15.743Z,47.20
2018-06-16T12:49:15.681Z,49.63
2018-06-16T12:51:08.495Z,49.12
2018-06-16T12:52:08.422Z,48.15
2018-06-16T12:54:01.254Z,47.20
2018-06-16T12:55:01.170Z,50.41
2018-06-16T12:56:54.016Z,48.56
2018-06-16T12:57:53.972Z,52.28
2018-06-16T12:59:46.702Z,47.80
2018-06-16T13:00:46.618Z,48.29
2018-06-16T13:02:39.435Z,49.85
2018-06-16T13:03:39.382Z,48.68
2018-06-16T13:05:32.182Z,48.00
2018-06-16T13:06:32.123Z,49.76
2018-06-16T13:08:24.966Z,49.66
2018-06-16T13:09:24.864Z,49.46
2018-06-16T13:11:17.707Z,49.27
2018-06-16T13:12:17.644Z,49.34
2018-06-16T13:14:10.557Z,51.12
2018-06-16T13:15:10.386Z,52.58
2018-06-16T13:17:03.289Z,49.17
2018-06-16T13:18:03.222Z,47.90
2018-06-16T13:19:56.040Z,48.56
2018-06-16T13:20:55.945Z,50.51
2018-06-16T13:22:48.736Z,49.92
2018-06-16T13:23:48.694Z,50.43
2018-06-16T13:25:41.484Z,49.66
2018-06-16T13:26:41.414Z,49.27
2018-06-16T13:28:34.217Z,50.53
2018-06-16T13:29:34.154Z,48.88
2018-06-16T13:31:28.116Z,54.43
2018-06-16T13:32:27.016Z,47.98
2018-06-16T13:34:19.811Z,50.21
2018-06-16T13:35:19.797Z,50.58
2018-06-16T13:37:12.542Z,51.39
2018-06-16T13:38:12.481Z,55.27
2018-06-16T13:40:05.371Z,51.58
2018-06-16T13:41:05.221Z,50.80
2018-06-16T13:42:58.061Z,50.70
2018-06-16T13:43:57.990Z,48.29
2018-06-16T13:45:50.891Z,50.04
2018-06-16T13:46:50.826Z,49.46
2018-06-16T13:48:43.610Z,50.51
2018-06-16T13:49:43.549Z,49.92
2018-06-16T13:51:36.421Z,51.51
2018-06-16T13:52:36.312Z,48.49
2018-06-16T13:54:29.102Z,49.34
2018-06-16T13:55:29.046Z,49.34
2018-06-16T13:57:21.901Z,51.87
2018-06-16T13:58:21.815Z,51.53
2018-06-16T14:00:14.690Z,51.79
2018-06-16T14:01:14.653Z,52.89
2018-06-16T14:03:07.365Z,51.21
2018-06-16T14:04:07.290Z,51.40
2018-06-16T14:06:00.199Z,54.64
2018-06-16T14:07:00.137Z,54.93
2018-06-16T14:08:52.998Z,52.33
2018-06-16T14:09:52.865Z,53.50
2018-06-16T14:11:45.794Z,51.19
2018-06-16T14:12:45.698Z,51.67
2018-06-16T14:14:39.073Z,54.21
2018-06-16T14:15:38.440Z,56.74
2018-06-16T14:17:31.274Z,52.45
2018-06-16T14:18:31.199Z,50.58
2018-06-16T14:20:24.020Z,54.08
2018-06-16T14:21:23.964Z,53.47
2018-06-16T14:23:16.779Z,54.32
2018-06-16T14:24:16.697Z,54.22
2018-06-16T14:26:09.557Z,54.03
2018-06-16T14:27:09.493Z,53.74
2018-06-16T14:29:02.371Z,53.45
2018-06-16T14:30:02.279Z,53.25
2018-06-16T14:31:55.088Z,53.83
2018-06-16T14:32:55.049Z,55.00
2018-06-16T14:34:47.829Z,53.77
2018-06-16T14:35:47.749Z,55.51
2018-06-16T14:37:40.599Z,53.57
2018-06-16T14:38:40.502Z,53.40
2018-06-16T14:40:33.378Z,52.33
2018-06-16T14:41:33.272Z,52.92
2018-06-16T14:43:26.088Z,50.99
2018-06-16T14:44:26.027Z,51.36
2018-06-16T14:46:18.883Z,52.82
2018-06-16T14:47:18.828Z,52.55
2018-06-16T14:49:11.649Z,52.94
2018-06-16T14:50:11.558Z,50.60
2018-06-16T14:52:04.429Z,50.70
2018-06-16T14:53:04.358Z,50.43
2018-06-16T14:54:57.152Z,49.66
2018-06-16T14:55:57.155Z,50.24
2018-06-16T14:57:49.908Z,48.68
2018-06-16T14:58:49.835Z,50.60
2018-06-16T15:00:42.708Z,49.92
2018-06-16T15:01:42.640Z,51.48
2018-06-16T15:03:35.435Z,51.80
2018-06-16T15:04:35.496Z,50.53
2018-06-16T15:06:28.153Z,52.38
2018-06-16T15:07:28.096Z,53.85
2018-06-16T15:09:20.907Z,50.70
2018-06-16T15:10:20.847Z,51.48
2018-06-16T15:12:13.656Z,52.55
2018-06-16T15:13:13.573Z,53.23
2018-06-16T15:15:06.361Z,50.90
2018-06-16T15:16:06.378Z,49.51
2018-06-16T15:17:59.128Z,50.97
2018-06-16T15:18:59.039Z,51.84
2018-06-16T15:21:28.992Z,51.39
2018-06-16T15:22:28.940Z,51.45
2018-06-16T15:24:21.741Z,51.36
2018-06-16T15:25:21.675Z,49.99
2018-06-16T15:27:14.457Z,51.67
2018-06-16T15:28:14.399Z,51.29
2018-06-16T15:30:07.196Z,51.36
2018-06-16T15:31:07.123Z,51.55
2018-06-16T15:32:59.914Z,51.36
2018-06-16T15:33:59.843Z,51.39
2018-06-16T15:35:52.639Z,53.16
2018-06-16T15:36:52.579Z,52.48
2018-06-16T15:38:45.362Z,49.24
2018-06-16T15:39:45.294Z,50.90
2018-06-16T15:41:38.081Z,50.41
2018-06-16T15:42:38.023Z,51.48
2018-06-16T15:44:30.818Z,50.78
2018-06-16T15:45:30.738Z,50.68
2018-06-16T15:47:23.519Z,50.56
2018-06-16T15:48:23.454Z,51.72
2018-06-16T15:50:16.254Z,50.56
2018-06-16T15:51:16.204Z,51.70
2018-06-16T15:53:09.081Z,51.50
2018-06-16T15:54:08.906Z,51.79
2018-06-16T15:56:01.696Z,52.67
2018-06-16T15:57:01.641Z,51.50
2018-06-16T15:58:54.432Z,52.67
2018-06-16T15:59:54.373Z,53.06
2018-06-16T16:01:47.213Z,56.07
2018-06-16T16:02:47.117Z,53.77
2018-06-16T16:04:40.057Z,56.77
2018-06-16T16:05:39.871Z,53.77
2018-06-16T16:07:33.457Z,55.41
2018-06-16T16:08:33.379Z,54.74
2018-06-16T16:10:26.205Z,52.89
2018-06-16T16:11:26.139Z,54.83
2018-06-16T16:13:18.964Z,52.09
2018-06-16T16:14:18.870Z,51.60
2018-06-16T16:16:11.745Z,53.77
2018-06-16T16:17:11.625Z,51.43
2018-06-16T16:19:04.467Z,51.33
2018-06-16T16:20:04.372Z,52.50
2018-06-16T16:21:57.184Z,52.79
2018-06-16T16:22:57.087Z,52.14
2018-06-16T16:24:49.904Z,53.11
2018-06-16T16:25:49.836Z,52.62
2018-06-16T16:27:42.675Z,52.50
2018-06-16T16:28:42.566Z,50.56
2018-06-16T16:30:35.376Z,52.40
2018-06-16T16:31:35.313Z,53.77
2018-06-16T16:33:28.103Z,51.72
2018-06-16T16:34:28.046Z,51.17
2018-06-16T16:36:20.877Z,52.43
2018-06-16T16:37:20.783Z,53.28
2018-06-16T16:39:13.582Z,53.86
2018-06-16T16:40:13.574Z,53.38
2018-06-16T16:42:06.308Z,52.50
2018-06-16T16:43:06.241Z,52.40
2018-06-16T16:44:59.056Z,52.47
2018-06-16T16:45:59.041Z,51.31
2018-06-16T16:47:51.774Z,51.31
2018-06-16T16:48:51.721Z,51.11
2018-06-16T16:50:44.521Z,53.64
2018-06-16T16:51:44.467Z,52.06
2018-06-16T16:53:37.248Z,52.45
2018-06-16T16:54:37.187Z,52.64
2018-06-16T16:56:30.078Z,54.97
2018-06-16T16:57:30.004Z,53.91
2018-06-16T16:59:22.813Z,53.32
2018-06-16T17:00:22.730Z,52.45
2018-06-16T17:02:15.534Z,53.03
2018-06-16T17:03:15.467Z,53.22
2018-06-16T17:05:08.267Z,52.45
2018-06-16T17:06:08.203Z,53.42
2018-06-16T17:08:00.988Z,54.78
2018-06-16T17:09:00.941Z,55.36
2018-06-16T17:10:53.721Z,53.10
2018-06-16T17:11:53.664Z,54.68
2018-06-16T17:13:46.488Z,55.55
2018-06-16T17:14:46.442Z,54.46
2018-06-16T17:16:39.311Z,53.39
2018-06-16T17:17:39.228Z,53.42
2018-06-16T17:19:31.990Z,53.49
2018-06-16T17:20:31.932Z,53.78
2018-06-16T17:22:24.802Z,54.27
2018-06-16T17:23:24.727Z,53.59
2018-06-16T17:25:17.523Z,54.17
2018-06-16T17:26:17.442Z,53.69
2018-06-16T17:28:10.235Z,53.88
2018-06-16T17:29:10.176Z,52.62
2018-06-16T17:31:02.991Z,54.66
2018-06-16T17:32:02.907Z,54.75
2018-06-16T17:33:55.702Z,53.88
2018-06-16T17:34:55.631Z,55.04
2018-06-16T17:36:48.499Z,55.14
2018-06-16T17:37:48.424Z,56.11
2018-06-16T17:39:41.214Z,55.14
2018-06-16T17:40:41.152Z,53.88
2018-06-16T17:42:33.971Z,57.08
2018-06-16T17:43:33.886Z,56.60
2018-06-16T17:45:26.689Z,55.69
2018-06-16T17:46:26.630Z,58.61
2018-06-16T17:48:19.840Z,59.19
2018-06-16T17:49:19.381Z,56.76
2018-06-16T17:51:12.321Z,58.41
2018-06-16T17:52:12.125Z,56.86
2018-06-16T17:54:04.983Z,56.35
2018-06-16T17:55:04.906Z,58.39
2018-06-16T17:56:57.736Z,58.19
2018-06-16T17:57:57.639Z,58.87
2018-06-16T17:59:50.431Z,60.20
2018-06-16T18:00:50.368Z,60.00
2018-06-16T18:02:43.236Z,60.10
2018-06-16T18:03:43.120Z,61.26
2018-06-16T18:05:36.016Z,63.30
2018-06-16T18:06:35.946Z,60.58
2018-06-16T18:08:28.738Z,58.36
2018-06-16T18:09:28.671Z,60.78
2018-06-16T18:11:21.453Z,58.84
2018-06-16T18:12:21.399Z,58.65
2018-06-16T18:14:14.262Z,60.78
2018-06-16T18:15:14.197Z,60.49
2018-06-16T18:17:06.979Z,59.23
2018-06-16T18:18:06.913Z,58.74
2018-06-16T18:19:59.696Z,60.20
2018-06-16T18:20:59.640Z,58.45
2018-06-16T18:22:52.527Z,58.06
2018-06-16T18:23:52.398Z,58.16
2018-06-16T18:25:45.388Z,58.84
2018-06-16T18:26:45.148Z,58.36
2018-06-16T18:28:38.030Z,58.55
2018-06-16T18:29:37.856Z,61.36
2018-06-16T18:31:30.667Z,60.68
2018-06-16T18:32:30.595Z,61.72